Time;durP1;ratioP1;P1;durP2;ratioP2;P2;SDS_P1;SDS_P2;PMS_P1;PMS_P2;Temp;Humidity;BMP_temperature;BMP_pressure;BME280_temperature;BME280_humidity;BME280_pressure;Samples;Min_cycle;Max_cycle;Signal;HPM_P1;HPM_P2
2022/03/11 00:03:13;;;;;;;9.47;5.03;;;;;;;-1.27;50.14;97081.88;10452885;28;20246;-56
2022/03/11 00:08:13;;;;;;;10.13;4.83;;;;;;;-1.37;51.53;97095.22;10452628;28;20212;-58
2022/03/11 00:13:14;;;;;;;13.30;4.87;;;;;;;-1.39;49.32;97054.19;10452300;28;20191;-57
2022/03/11 00:18:14;;;;;;;8.60;4.10;;;;;;;-1.35;48.47;97021.47;10452382;28;20299;-60
2022/03/11 00:23:15;;;;;;;5.77;3.13;;;;;;;-1.34;48.49;97008.53;10452662;28;20199;-58
2022/03/11 00:28:16;;;;;;;9.80;5.07;;;;;;;-1.38;47.43;97016.47;10452008;28;20239;-58
2022/03/11 00:33:16;;;;;;;10.10;5.00;;;;;;;-1.43;47.61;97011.56;10452401;28;20196;-56
2022/03/11 00:38:16;;;;;;;8.47;4.27;;;;;;;-1.56;48.52;97031.88;10451987;28;20228;-58
2022/03/11 00:43:17;;;;;;;10.73;5.93;;;;;;;-1.56;48.17;96984.78;10452048;28;20241;-58
2022/03/11 00:48:18;;;;;;;9.67;4.77;;;;;;;-1.65;49.25;97032.31;10451923;28;20203;-57
2022/03/11 00:53:18;;;;;;;7.70;3.87;;;;;;;-1.58;47.63;96974.59;10451835;28;20278;-59
2022/03/11 00:58:19;;;;;;;11.60;4.80;;;;;;;-1.56;47.07;96959.97;10451643;28;21121;-60
2022/03/11 01:03:19;;;;;;;12.57;4.93;;;;;;;-1.55;46.21;96930.78;10451671;28;20724;-57
2022/03/11 01:08:19;;;;;;;12.40;4.90;;;;;;;-1.60;45.62;96917.34;10451093;28;20968;-57
2022/03/11 01:13:20;;;;;;;11.90;4.90;;;;;;;-1.54;44.48;96885.38;10451378;28;20563;-59
2022/03/11 01:18:22;;;;;;;6.50;4.07;;;;;;;-1.63;44.65;96877.22;10451400;28;20223;-57
2022/03/11 01:23:22;;;;;;;4.87;3.07;;;;;;;-1.59;44.21;96857.34;10453439;28;20196;-58
2022/03/11 01:28:23;;;;;;;7.90;4.23;;;;;;;-1.62;43.55;96845.50;10482537;22;20242;-54
2022/03/11 01:33:23;;;;;;;8.43;3.90;;;;;;;-1.72;44.06;96831.44;10415201;28;20244;-53
2022/03/11 01:38:23;;;;;;;2.77;2.37;;;;;;;-1.74;44.68;96832.44;10417514;28;20202;-54
2022/03/11 01:43:24;;;;;;;5.60;3.27;;;;;;;-1.85;44.58;96831.25;10417477;28;20548;-56
2022/03/11 01:48:24;;;;;;;6.13;3.37;;;;;;;-1.87;44.61;96835.63;10417066;28;20258;-57
2022/03/11 01:53:24;;;;;;;7.97;2.27;;;;;;;-1.87;44.97;96820.22;10417292;28;20197;-54
2022/03/11 01:58:26;;;;;;;12.17;4.87;;;;;;;-1.99;45.62;96831.09;10416346;28;20205;-54
2022/03/11 02:03:26;;;;;;;4.83;2.87;;;;;;;-2.02;45.40;96818.41;10398452;28;20192;-54
2022/03/11 02:08:26;;;;;;;6.90;3.43;;;;;;;-1.95;45.04;96804.38;10415283;28;20200;-55
2022/03/11 02:13:27;;;;;;;12.70;4.73;;;;;;;-2.06;45.17;96801.53;10398024;28;20212;-53
2022/03/11 02:18:27;;;;;;;10.27;3.23;;;;;;;-1.94;44.06;96777.78;10415618;28;20192;-55
2022/03/11 02:23:29;;;;;;;8.73;4.40;;;;;;;-1.94;43.42;96753.88;10415252;28;20195;-53
2022/03/11 02:28:32;;;;;;;3.10;2.27;;;;;;;-1.90;42.81;96745.09;10415620;28;20654;-54
2022/03/11 02:33:32;;;;;;;10.67;4.60;;;;;;;-1.92;43.63;96759.75;10414730;28;20212;-56
2022/03/11 02:38:33;;;;;;;7.00;3.87;;;;;;;-2.04;43.85;96779.16;10415506;28;20568;-53
2022/03/11 02:43:33;;;;;;;11.93;4.03;;;;;;;-1.98;43.33;96756.59;10414909;28;20923;-53
2022/03/11 02:48:34;;;;;;;6.67;4.17;;;;;;;-2.13;44.36;96771.91;10414662;28;20216;-53
2022/03/11 02:53:40;;;;;;;11.60;4.60;;;;;;;-2.12;43.52;96740.22;10414898;28;20196;-52
2022/03/11 02:58:42;;;;;;;7.70;3.53;;;;;;;-2.18;43.92;96741.34;10414199;28;20232;-53
2022/03/11 03:03:42;;;;;;;10.53;4.13;;;;;;;-2.23;43.71;96733.06;10414374;28;20195;-54
2022/03/11 03:08:43;;;;;;;3.90;2.57;;;;;;;-2.33;43.85;96741.22;10413734;28;20212;-53
2022/03/11 03:13:43;;;;;;;5.03;2.87;;;;;;;-2.35;43.46;96731.94;10413642;28;20217;-55
2022/03/11 03:18:44;;;;;;;12.97;5.40;;;;;;;-2.40;43.40;96726.22;10414011;28;20243;-52
2022/03/11 03:23:46;;;;;;;9.87;5.73;;;;;;;-2.37;43.04;96690.97;10413116;28;20200;-52
2022/03/11 03:28:46;;;;;;;10.50;4.37;;;;;;;-2.46;43.51;96706.00;10413286;28;20323;-55
2022/03/11 03:33:56;;;;;;;10.40;5.40;;;;;;;-2.54;44.19;96734.59;10413044;28;20220;-57
2022/03/11 03:38:56;;;;;;;4.33;2.77;;;;;;;-2.48;43.70;96724.03;10412938;28;20216;-55
2022/03/11 03:43:56;;;;;;;6.27;3.50;;;;;;;-2.48;43.22;96715.50;10395327;28;20197;-57
2022/03/11 03:48:58;;;;;;;11.53;4.83;;;;;;;-2.52;43.14;96712.25;10370820;28;20221;-56
2022/03/11 03:53:58;;;;;;;13.83;5.33;;;;;;;-2.57;43.13;96729.63;10371526;28;20256;-57
2022/03/11 03:59:04;;;;;;;5.73;3.33;;;;;;;-2.51;42.71;96686.53;10371169;28;20209;-56
2022/03/11 04:04:06;;;;;;;9.70;4.27;;;;;;;-2.62;43.29;96711.91;10390375;28;20193;-58
2022/03/11 04:09:08;;;;;;;7.50;4.50;;;;;;;-2.62;43.25;96706.75;10411333;28;20254;-54
2022/03/11 04:14:08;;;;;;;9.17;3.90;;;;;;;-2.81;43.78;96717.06;10411573;28;20299;-52
2022/03/11 04:19:08;;;;;;;11.43;4.77;;;;;;;-2.70;43.11;96701.16;10411615;28;20208;-53
2022/03/11 04:24:14;;;;;;;10.77;4.63;;;;;;;-2.85;43.42;96701.91;10411185;28;20193;-55
2022/03/11 04:29:14;;;;;;;7.30;3.90;;;;;;;-3.00;45.20;96752.16;10411246;28;20231;-55
2022/03/11 04:34:14;;;;;;;8.57;4.23;;;;;;;-3.32;45.66;96772.41;10411149;28;20212;-53
2022/03/11 04:39:15;;;;;;;7.93;4.30;;;;;;;-3.80;49.06;96844.47;10410981;28;20209;-52
2022/03/11 04:44:16;;;;;;;8.60;4.20;;;;;;;-3.93;48.67;96814.34;10411106;28;20192;-53
2022/03/11 04:49:16;;;;;;;10.37;4.40;;;;;;;-3.95;48.96;96820.34;10410863;28;20263;-52
2022/03/11 04:54:16;;;;;;;7.40;4.03;;;;;;;-3.74;47.96;96796.47;10410820;28;20219;-53
2022/03/11 04:59:17;;;;;;;11.80;4.03;;;;;;;-4.00;48.25;96806.09;10415748;28;20224;-52
2022/03/11 05:04:17;;;;;;;8.57;4.20;;;;;;;-3.84;47.23;96778.13;10418867;28;20266;-53
2022/03/11 05:09:17;;;;;;;8.37;4.17;;;;;;;-3.28;45.24;96759.41;10418397;28;20302;-60
2022/03/11 05:14:18;;;;;;;7.80;3.90;;;;;;;-3.33;46.30;96779.28;10418416;28;20228;-58
2022/03/11 05:19:18;;;;;;;8.33;4.07;;;;;;;-3.22;45.93;96783.91;10418392;28;20223;-54
2022/03/11 05:24:19;;;;;;;7.77;4.17;;;;;;;-3.72;48.42;96835.63;10418029;28;20189;-52
2022/03/11 05:29:22;;;;;;;7.73;3.90;;;;;;;-3.87;49.83;96855.03;10417812;28;20770;-52
2022/03/11 05:34:23;;;;;;;8.57;4.00;;;;;;;-3.56;48.37;96833.25;10417696;28;20227;-52
2022/03/11 05:39:23;;;;;;;9.43;4.43;;;;;;;-3.29;47.56;96826.09;10417142;28;20215;-52
2022/03/11 05:44:24;;;;;;;8.97;4.63;;;;;;;-3.24;47.38;96842.91;10417262;28;20197;-54
2022/03/11 05:49:25;;;;;;;7.60;3.97;;;;;;;-3.19;47.74;96865.75;10417744;28;20321;-52
2022/03/11 05:54:25;;;;;;;10.03;4.60;;;;;;;-3.01;47.76;96858.16;10416918;28;20227;-54
2022/03/11 05:59:29;;;;;;;12.90;3.90;;;;;;;-3.19;48.94;96886.25;10416943;28;20219;-55
2022/03/11 06:04:29;;;;;;;9.60;4.07;;;;;;;-3.26;49.83;96916.44;10416514;28;20180;-56
2022/03/11 06:09:30;;;;;;;8.53;4.50;;;;;;;-3.07;49.31;96913.06;10415414;28;20216;-55
2022/03/11 06:14:30;;;;;;;11.17;5.33;;;;;;;-3.08;49.05;96919.09;10415911;28;20313;-54
2022/03/11 06:19:30;;;;;;;10.37;4.77;;;;;;;-3.15;50.05;96933.91;10416126;28;20211;-51
2022/03/11 06:24:31;;;;;;;11.83;4.57;;;;;;;-2.82;48.19;96904.28;10415793;28;20224;-54
2022/03/11 06:29:31;;;;;;;8.63;4.30;;;;;;;-2.75;48.52;96910.81;10415283;28;20245;-53
2022/03/11 06:34:32;;;;;;;7.93;3.70;;;;;;;-2.58;46.99;96898.03;10415643;28;20238;-52
2022/03/11 06:39:32;;;;;;;6.20;3.23;;;;;;;-2.13;46.80;96888.22;10415018;28;20620;-53
2022/03/11 06:44:32;;;;;;;8.40;3.37;;;;;;;-1.46;45.61;96886.63;10415393;28;20211;-54
2022/03/11 06:49:33;;;;;;;10.50;4.00;;;;;;;-1.04;43.79;96843.38;10414763;28;20255;-55
2022/03/11 06:54:33;;;;;;;7.97;3.27;;;;;;;-0.69;43.58;96832.09;10414752;28;20231;-54
2022/03/11 06:59:33;;;;;;;6.90;4.13;;;;;;;-0.79;42.36;96783.72;10414605;28;20220;-57
2022/03/11 07:04:34;;;;;;;5.70;3.27;;;;;;;-0.40;42.76;96817.59;10413299;28;20216;-58
2022/03/11 07:09:35;;;;;;;11.93;4.30;;;;;;;-0.08;41.77;96782.31;10412612;28;20223;-53
2022/03/11 07:14:36;;;;;;;6.63;3.90;;;;;;;-0.13;41.59;96791.22;10411582;28;20213;-53
2022/03/11 07:19:36;;;;;;;9.13;3.73;;;;;;;0.31;41.18;96773.16;10413793;28;20216;-56
2022/03/11 07:24:39;;;;;;;11.17;5.00;;;;;;;0.46;41.06;96793.78;10413475;28;20250;-61
2022/03/11 07:29:40;;;;;;;11.80;4.50;;;;;;;0.63;41.06;96783.28;10412911;28;20264;-57
2022/03/11 07:34:40;;;;;;;13.13;4.20;;;;;;;0.79;40.94;96788.34;10413098;28;20480;-56
2022/03/11 07:39:41;;;;;;;5.17;3.40;;;;;;;0.83;41.18;96807.84;10412640;28;20225;-57
2022/03/11 07:44:43;;;;;;;9.67;5.23;;;;;;;0.62;43.12;96868.47;10412923;28;20270;-58
2022/03/11 07:49:43;;;;;;;8.63;4.53;;;;;;;-0.23;43.73;96847.53;10412554;28;20215;-58
2022/03/11 07:54:43;;;;;;;6.87;4.17;;;;;;;0.81;43.42;96886.22;10412058;28;20224;-59
2022/03/11 07:59:44;;;;;;;8.40;4.17;;;;;;;0.58;43.42;96872.13;10408528;28;20938;-58
2022/03/11 08:04:44;;;;;;;8.60;4.43;;;;;;;0.52;43.98;96888.78;10408298;28;20658;-56
2022/03/11 08:09:44;;;;;;;10.13;4.77;;;;;;;0.77;43.82;96900.25;10408149;28;20216;-60
2022/03/11 08:14:46;;;;;;;14.93;5.50;;;;;;;0.79;44.21;96914.69;10408819;28;20223;-53
2022/03/11 08:19:46;;;;;;;6.63;3.50;;;;;;;0.97;43.04;96886.97;10408198;28;20345;-58
2022/03/11 08:24:46;;;;;;;9.27;4.60;;;;;;;1.91;41.45;96885.47;10407111;28;20203;-55
2022/03/11 08:29:47;;;;;;;9.37;3.63;;;;;;;1.31;42.20;96872.00;10407064;28;20240;-57
2022/03/11 08:34:47;;;;;;;11.43;4.57;;;;;;;1.58;42.00;96884.94;10407331;28;20223;-55
2022/03/11 08:39:48;;;;;;;8.63;4.17;;;;;;;1.09;42.40;96872.50;10408047;28;20710;-54
2022/03/11 08:44:48;;;;;;;7.47;4.17;;;;;;;1.25;42.05;96854.31;10408322;28;20937;-52
2022/03/11 08:49:48;;;;;;;10.17;4.23;;;;;;;1.58;42.64;96884.13;10407820;28;20694;-58
2022/03/11 08:54:49;;;;;;;12.40;4.47;;;;;;;2.10;41.03;96885.94;10408303;28;20729;-57
2022/03/11 08:59:49;;;;;;;13.17;4.37;;;;;;;1.77;41.87;96907.84;10406966;28;20298;-53
2022/03/11 09:04:50;;;;;;;15.27;3.43;;;;;;;2.42;41.24;96910.59;10407152;28;20267;-52
2022/03/11 09:09:50;;;;;;;8.67;3.77;;;;;;;2.96;40.60;96912.22;10405080;28;20238;-55
2022/03/11 09:14:50;;;;;;;7.63;4.83;;;;;;;2.28;41.89;96932.19;10405588;28;20299;-57
2022/03/11 09:19:51;;;;;;;10.47;5.40;;;;;;;2.56;41.22;96923.47;10407752;28;20215;-54
2022/03/11 09:24:51;;;;;;;9.20;4.53;;;;;;;2.00;41.28;96869.38;10407448;28;20192;-53
2022/03/11 09:29:52;;;;;;;8.30;4.07;;;;;;;1.64;41.64;96912.16;10407330;28;20730;-57
2022/03/11 09:34:53;;;;;;;15.30;9.60;;;;;;;1.88;42.40;96927.00;10405914;28;20712;-59
2022/03/11 09:39:54;;;;;;;6.77;3.57;;;;;;;2.04;39.26;96846.78;10407446;28;20211;-59
2022/03/11 09:44:55;;;;;;;7.63;4.93;;;;;;;2.11;40.11;96876.44;10410472;28;20541;-59
2022/03/11 09:49:56;;;;;;;9.73;4.87;;;;;;;2.46;39.01;96848.25;10414866;28;20215;-60
2022/03/11 09:54:57;;;;;;;8.13;4.00;;;;;;;2.75;37.79;96829.94;10414722;28;20213;-57
2022/03/11 09:59:58;;;;;;;8.77;4.67;;;;;;;2.26;37.71;96803.06;10413782;28;20244;-60
2022/03/11 10:04:58;;;;;;;7.00;3.70;;;;;;;2.47;38.87;96864.63;10411617;28;20195;-55
2022/03/11 10:10:12;;;;;;;6.90;3.30;;;;;;;2.66;37.43;96815.91;10413559;28;20725;-54
2022/03/11 10:15:14;;;;;;;7.83;4.93;;;;;;;3.56;38.05;96883.00;10413430;28;20614;-58
2022/03/11 10:20:16;;;;;;;6.67;3.63;;;;;;;3.86;37.35;96850.66;10413596;28;20204;-61
2022/03/11 10:25:21;;;;;;;8.13;3.83;;;;;;;3.15;38.65;96885.91;10413496;28;20215;-59
2022/03/11 10:30:22;;;;;;;15.53;5.50;;;;;;;3.31;38.04;96899.44;10412315;28;20244;-58
2022/03/11 10:35:49;;;;;;;11.10;3.83;;;;;;;3.44;37.55;96867.50;10411711;28;20665;-57
2022/03/11 10:40:51;;;;;;;6.83;3.73;;;;;;;3.73;37.93;96897.34;10406553;28;20235;-54
2022/03/11 10:46:06;;;;;;;12.83;4.67;;;;;;;3.65;38.90;96920.38;10412796;28;20192;-55
2022/03/11 10:51:24;;;;;;;7.60;4.40;;;;;;;3.83;37.24;96869.03;10411944;28;20312;-60
2022/03/11 10:56:33;;;;;;;8.07;4.50;;;;;;;3.49;37.70;96865.41;10411242;28;20667;-55
2022/03/11 11:01:41;;;;;;;12.20;5.80;;;;;;;4.21;37.84;96891.34;10411971;28;20220;-58
2022/03/11 11:06:42;;;;;;;21.27;5.30;;;;;;;3.82;38.36;96887.28;10411650;28;20180;-58
2022/03/11 11:11:45;;;;;;;10.23;5.43;;;;;;;3.04;38.84;96886.63;10410480;28;20214;-61
2022/03/11 11:16:48;;;;;;;13.60;4.43;;;;;;;4.35;38.66;96929.22;10410999;28;20571;-58
2022/03/11 11:21:50;;;;;;;12.60;5.50;;;;;;;4.79;37.97;96908.69;10411070;28;20232;-58
2022/03/11 11:26:53;;;;;;;9.53;3.77;;;;;;;4.85;36.28;96835.53;10410518;28;20185;-59
2022/03/11 11:31:54;;;;;;;7.07;5.03;;;;;;;5.04;36.83;96868.72;10406228;28;20340;-59
2022/03/11 11:36:54;;;;;;;5.77;3.40;;;;;;;5.05;35.60;96809.81;10394424;28;20266;-58
2022/03/11 11:41:57;;;;;;;12.43;6.17;;;;;;;5.45;36.19;96840.44;10410044;28;20208;-54
2022/03/11 11:47:11;;;;;;;12.33;6.47;;;;;;;5.28;36.53;96832.22;10411193;28;20199;-58
2022/03/11 11:52:25;;;;;;;11.67;5.67;;;;;;;5.70;36.14;96829.75;10410799;28;20216;-59
2022/03/11 11:57:35;;;;;;;12.57;5.90;;;;;;;5.57;36.58;96836.88;10411461;28;20658;-58
2022/03/11 12:02:36;;;;;;;9.50;5.57;;;;;;;5.59;36.06;96808.16;10410315;28;20220;-61
2022/03/11 12:07:45;;;;;;;9.43;5.17;;;;;;;7.43;34.82;96867.53;10410710;28;20192;-57
2022/03/11 12:12:48;;;;;;;8.10;4.50;;;;;;;7.00;33.52;96784.41;10409648;28;20209;-60
2022/03/11 12:18:00;;;;;;;9.23;6.43;;;;;;;7.74;35.47;96870.06;10410548;28;20303;-58
2022/03/11 12:23:03;;;;;;;12.40;6.53;;;;;;;6.51;35.94;96842.31;10407711;28;20211;-58
2022/03/11 12:28:31;;;;;;;12.43;5.93;;;;;;;6.98;34.33;96821.00;10409434;28;20195;-59
2022/03/11 12:33:35;;;;;;;13.70;6.20;;;;;;;6.33;36.64;96842.03;10409945;28;20220;-57
2022/03/11 12:38:38;;;;;;;13.40;6.13;;;;;;;5.67;35.96;96796.22;10409347;28;20220;-58
2022/03/11 12:43:41;;;;;;;12.00;4.70;;;;;;;4.43;36.69;96789.41;10409793;28;20724;-58
2022/03/11 12:48:43;;;;;;;12.57;6.50;;;;;;;5.56;35.98;96790.22;10410340;28;20208;-55
2022/03/11 12:53:45;;;;;;;6.37;3.97;;;;;;;5.65;35.78;96776.47;10410232;28;20235;-57
2022/03/11 12:58:47;;;;;;;11.93;5.60;;;;;;;5.80;35.87;96790.03;10408577;28;20224;-54
2022/03/11 13:03:50;;;;;;;14.03;6.90;;;;;;;6.00;37.02;96838.69;10409741;28;20192;-54
2022/03/11 13:09:24;;;;;;;13.67;5.20;;;;;;;5.41;36.03;96780.13;10405619;28;20220;-59
2022/03/11 13:14:31;;;;;;;9.90;5.40;;;;;;;6.16;34.72;96783.63;10404789;28;20212;-58
2022/03/11 13:19:32;;;;;;;9.20;3.97;;;;;;;5.56;35.24;96756.44;10413547;28;20219;-59
2022/03/11 13:24:32;;;;;;;12.43;5.93;;;;;;;5.60;35.44;96778.66;10417058;28;20204;-54
2022/03/11 13:29:43;;;;;;;11.53;6.00;;;;;;;5.47;35.57;96760.63;10440272;23;20605;-59
2022/03/11 13:34:48;;;;;;;7.40;4.67;;;;;;;6.21;34.62;96763.22;10415395;28;20220;-58
2022/03/11 13:40:08;;;;;;;10.67;5.77;;;;;;;6.49;34.42;96780.91;10415138;28;20209;-57
2022/03/11 13:45:09;;;;;;;10.60;5.47;;;;;;;5.65;35.57;96769.53;10415200;28;20220;-58
2022/03/11 13:50:10;;;;;;;8.60;5.80;;;;;;;5.64;35.48;96741.88;10416201;28;20240;-60
2022/03/11 13:55:10;;;;;;;7.37;4.50;;;;;;;6.65;33.43;96713.59;10415692;28;20228;-58
2022/03/11 14:00:20;;;;;;;9.77;6.00;;;;;;;7.06;33.09;96743.03;10415631;28;20590;-56
2022/03/11 14:05:23;;;;;;;5.20;3.07;;;;;;;6.07;33.33;96698.56;10415596;28;20193;-56
2022/03/11 14:10:27;;;;;;;12.37;6.47;;;;;;;6.19;33.17;96688.91;10415182;28;20217;-55
2022/03/11 14:15:35;;;;;;;15.67;5.90;;;;;;;6.58;33.38;96734.13;10413984;28;20220;-54
2022/03/11 14:20:35;;;;;;;9.33;2.97;;;;;;;6.45;32.77;96693.66;10414541;28;20714;-54
2022/03/11 14:25:36;;;;;;;11.67;4.70;;;;;;;5.91;33.70;96685.97;10415079;28;20197;-55
2022/03/11 14:30:37;;;;;;;7.50;4.50;;;;;;;6.58;32.54;96681.22;10413297;28;20232;-56
2022/03/11 14:35:37;;;;;;;8.60;4.23;;;;;;;5.85;33.70;96670.88;10414740;28;20236;-55
2022/03/11 14:40:38;;;;;;;11.17;4.80;;;;;;;5.47;34.16;96670.50;10413404;28;20212;-56
2022/03/11 14:45:38;;;;;;;10.83;5.37;;;;;;;6.72;33.36;96706.91;10411521;28;20219;-55
2022/03/11 14:50:38;;;;;;;7.43;4.83;;;;;;;6.35;34.11;96712.63;10413341;28;20340;-55
2022/03/11 14:55:39;;;;;;;12.63;4.53;;;;;;;5.41;33.24;96632.03;10413317;28;20216;-54
2022/03/11 15:00:40;;;;;;;7.33;3.73;;;;;;;5.80;32.45;96624.47;10413183;28;20217;-60
2022/03/11 15:05:40;;;;;;;15.50;6.87;;;;;;;6.33;31.79;96605.28;10412979;28;20200;-55
2022/03/11 15:10:41;;;;;;;15.83;6.43;;;;;;;6.64;31.90;96625.22;10412996;28;20243;-60
2022/03/11 15:15:41;;;;;;;7.37;4.37;;;;;;;6.57;31.91;96602.34;10411817;28;20639;-57
2022/03/11 15:20:41;;;;;;;15.97;4.23;;;;;;;7.19;30.88;96620.34;10412266;28;20247;-57
2022/03/11 15:25:46;;;;;;;10.20;4.97;;;;;;;7.67;31.75;96648.16;10412517;28;20189;-56
2022/03/11 15:30:46;;;;;;;9.80;4.70;;;;;;;5.97;31.76;96610.09;10411614;28;20732;-55
2022/03/11 15:35:48;;;;;;;10.30;5.63;;;;;;;8.02;29.80;96604.97;10412292;28;20590;-54
2022/03/11 15:40:48;;;;;;;9.30;3.93;;;;;;;7.45;30.11;96552.81;10410691;28;20220;-54
2022/03/11 15:45:48;;;;;;;10.00;5.10;;;;;;;5.95;30.45;96527.94;10411123;28;20331;-54
2022/03/11 15:50:49;;;;;;;7.60;4.17;;;;;;;7.02;29.55;96559.34;10410036;28;20273;-60
2022/03/11 15:55:50;;;;;;;6.90;4.07;;;;;;;7.09;29.88;96560.44;10411093;28;20204;-54
2022/03/11 16:00:50;;;;;;;6.17;4.07;;;;;;;6.67;30.38;96539.06;10411038;28;20212;-60
2022/03/11 16:05:51;;;;;;;5.67;3.23;;;;;;;5.80;30.50;96511.88;10410575;28;20273;-58
2022/03/11 16:10:51;;;;;;;7.33;3.97;;;;;;;4.39;32.47;96545.97;10410840;28;20266;-54
2022/03/11 16:15:51;;;;;;;6.63;3.47;;;;;;;3.46;34.05;96562.63;10391853;28;20227;-55
2022/03/11 16:20:52;;;;;;;6.57;3.70;;;;;;;3.28;33.38;96542.38;10408379;28;20255;-57
2022/03/11 16:25:53;;;;;;;5.57;2.53;;;;;;;3.15;33.51;96534.69;10408497;28;20238;-53
2022/03/11 16:30:53;;;;;;;6.50;3.70;;;;;;;3.13;34.47;96580.56;10409678;28;20274;-58
2022/03/11 16:35:53;;;;;;;6.70;4.23;;;;;;;2.91;34.41;96567.56;10410459;28;20220;-55
2022/03/11 16:40:54;;;;;;;8.60;4.13;;;;;;;2.92;33.95;96561.47;10410032;28;20306;-58
2022/03/11 16:45:54;;;;;;;7.03;4.20;;;;;;;2.76;34.77;96567.75;10409160;28;20189;-57
2022/03/11 16:50:59;;;;;;;7.50;4.00;;;;;;;2.68;34.90;96576.06;10409720;28;20212;-59
2022/03/11 16:55:59;;;;;;;7.27;4.53;;;;;;;2.68;34.51;96564.91;10418043;28;20279;-56
2022/03/11 17:00:59;;;;;;;4.87;3.10;;;;;;;2.54;34.63;96567.66;10419302;28;20220;-57
2022/03/11 17:06:00;;;;;;;6.77;4.13;;;;;;;2.44;34.85;96570.91;10419317;28;20189;-58
2022/03/11 17:11:00;;;;;;;6.30;3.67;;;;;;;2.43;35.13;96589.09;10418673;28;20216;-55
2022/03/11 17:16:04;;;;;;;6.43;3.50;;;;;;;2.41;34.95;96581.44;10416925;28;20304;-55
2022/03/11 17:21:05;;;;;;;8.90;4.10;;;;;;;2.34;35.30;96580.22;10418147;28;20212;-57
2022/03/11 17:26:05;;;;;;;13.23;4.57;;;;;;;2.32;35.23;96572.59;10418197;28;20183;-58
2022/03/11 17:31:05;;;;;;;9.10;4.23;;;;;;;2.33;35.12;96576.00;10400332;28;20239;-55
2022/03/11 17:36:06;;;;;;;10.23;4.87;;;;;;;2.21;35.55;96588.03;10416778;28;20219;-55
2022/03/11 17:41:07;;;;;;;5.70;3.03;;;;;;;2.25;35.45;96586.91;10416290;28;20215;-58
2022/03/11 17:46:07;;;;;;;9.10;4.30;;;;;;;2.20;36.23;96616.56;10417228;28;20188;-55
2022/03/11 17:51:09;;;;;;;11.53;4.33;;;;;;;2.12;36.46;96625.66;10416952;28;20712;-59
2022/03/11 17:56:12;;;;;;;6.77;3.07;;;;;;;2.13;36.40;96623.94;10417092;28;20227;-54
2022/03/11 18:01:13;;;;;;;11.50;4.60;;;;;;;1.98;36.85;96628.41;10416324;28;20224;-58
2022/03/11 18:06:13;;;;;;;11.33;4.27;;;;;;;1.81;37.63;96633.88;10415340;28;20193;-52
2022/03/11 18:11:14;;;;;;;5.70;3.53;;;;;;;1.95;36.62;96626.03;10415877;28;20262;-59
2022/03/11 18:16:15;;;;;;;6.20;4.00;;;;;;;1.92;36.88;96629.63;10415907;28;20219;-56
2022/03/11 18:21:15;;;;;;;11.97;4.50;;;;;;;1.87;36.89;96618.81;10415613;28;20267;-59
2022/03/11 18:26:16;;;;;;;7.57;5.13;;;;;;;1.77;37.37;96615.19;10415318;28;20198;-58
2022/03/11 18:31:16;;;;;;;8.97;4.53;;;;;;;1.78;36.98;96622.00;10415063;28;20272;-58
2022/03/11 18:36:17;;;;;;;16.80;11.17;;;;;;;1.66;38.51;96657.22;10414916;28;20694;-57
2022/03/11 18:41:17;;;;;;;7.40;4.50;;;;;;;1.67;37.25;96604.66;10414868;28;20231;-58
2022/03/11 18:46:18;;;;;;;5.23;3.37;;;;;;;1.73;36.29;96562.94;10414463;28;20191;-55
2022/03/11 18:51:18;;;;;;;9.27;4.23;;;;;;;1.78;35.93;96540.19;10414150;28;20223;-58
2022/03/11 18:56:19;;;;;;;7.30;4.10;;;;;;;1.77;35.52;96515.28;10414447;28;20223;-57
2022/03/11 19:01:19;;;;;;;8.87;4.33;;;;;;;1.71;35.76;96527.81;10413710;28;20215;-57
2022/03/11 19:06:20;;;;;;;6.57;3.57;;;;;;;1.57;35.84;96547.63;10396597;28;20254;-58
2022/03/11 19:11:22;;;;;;;7.70;3.63;;;;;;;1.66;34.94;96519.56;10413655;28;20204;-58
2022/03/11 19:16:23;;;;;;;6.40;2.83;;;;;;;1.51;35.35;96524.00;10413267;28;20626;-54
2022/03/11 19:21:24;;;;;;;11.57;6.40;;;;;;;1.46;35.89;96546.75;10413569;28;20202;-54
2022/03/11 19:26:25;;;;;;;4.53;3.20;;;;;;;1.49;35.59;96539.59;10412992;28;20189;-58
2022/03/11 19:31:28;;;;;;;4.30;2.97;;;;;;;1.45;35.49;96533.00;10455197;22;20249;-55
2022/03/11 19:36:29;;;;;;;8.13;5.33;;;;;;;1.26;35.88;96548.91;10412543;28;20230;-57
2022/03/11 19:41:29;;;;;;;8.10;4.17;;;;;;;1.28;35.73;96544.47;10413139;28;20303;-57
2022/03/11 19:46:30;;;;;;;7.97;3.77;;;;;;;1.25;34.92;96530.00;10412876;28;20200;-61
2022/03/11 19:51:34;;;;;;;4.60;2.60;;;;;;;1.16;35.29;96540.13;10412203;28;20241;-60
2022/03/11 19:56:34;;;;;;;5.20;3.53;;;;;;;1.13;35.43;96541.13;10411809;28;20215;-59
2022/03/11 20:01:38;;;;;;;9.10;3.70;;;;;;;1.01;36.21;96581.50;10411760;28;20277;-60
2022/03/11 20:06:38;;;;;;;4.43;2.53;;;;;;;0.93;36.07;96568.25;10411576;28;20315;-60
2022/03/11 20:11:39;;;;;;;7.67;4.67;;;;;;;0.89;36.42;96574.56;10411360;28;20609;-56
2022/03/11 20:16:42;;;;;;;11.67;3.97;;;;;;;0.81;35.79;96548.44;10411072;28;20241;-60
2022/03/11 20:21:42;;;;;;;10.23;4.00;;;;;;;0.78;35.56;96533.16;10411019;28;20254;-59
2022/03/11 20:26:43;;;;;;;3.03;2.33;;;;;;;0.84;34.58;96497.50;10410502;28;20217;-59
2022/03/11 20:31:43;;;;;;;10.37;4.23;;;;;;;0.87;34.07;96475.81;10410317;28;20229;-59
2022/03/11 20:36:45;;;;;;;9.30;3.97;;;;;;;0.77;35.09;96493.66;10410733;28;20271;-59
2022/03/11 20:41:45;;;;;;;8.67;3.50;;;;;;;0.71;34.57;96486.34;10410510;28;20689;-60
2022/03/11 20:46:47;;;;;;;7.77;3.33;;;;;;;0.86;34.07;96489.66;10410102;28;20235;-59
2022/03/11 20:51:47;;;;;;;5.10;2.90;;;;;;;0.78;35.39;96535.72;10410545;28;20235;-60
2022/03/11 20:56:47;;;;;;;7.43;4.43;;;;;;;0.68;36.41;96554.38;10410546;28;20672;-58
2022/03/11 21:01:48;;;;;;;7.27;3.63;;;;;;;0.67;36.32;96554.47;10410444;28;20221;-59
2022/03/11 21:06:48;;;;;;;6.77;4.17;;;;;;;0.64;36.23;96552.91;10410753;28;20196;-60
2022/03/11 21:11:51;;;;;;;7.83;4.00;;;;;;;0.55;36.66;96566.41;10410252;28;20306;-59
2022/03/11 21:16:51;;;;;;;8.50;3.90;;;;;;;0.51;36.26;96539.19;10410625;28;20258;-56
2022/03/11 21:21:52;;;;;;;7.17;4.10;;;;;;;0.49;35.99;96543.59;10410128;28;20214;-60
2022/03/11 21:26:52;;;;;;;10.53;4.27;;;;;;;0.44;36.20;96536.16;10409422;28;20189;-60
2022/03/11 21:31:53;;;;;;;7.53;3.57;;;;;;;0.52;35.63;96522.78;10408037;28;20235;-60
2022/03/11 21:36:53;;;;;;;6.20;3.40;;;;;;;0.49;35.18;96516.09;10407929;28;20250;-58
2022/03/11 21:41:54;;;;;;;8.57;4.20;;;;;;;0.32;35.92;96531.78;10416269;28;20209;-60
2022/03/11 21:46:54;;;;;;;5.80;3.30;;;;;;;0.40;35.65;96511.53;10416626;28;20208;-59
2022/03/11 21:51:56;;;;;;;6.03;3.37;;;;;;;0.35;35.24;96486.06;10417583;28;20208;-59
2022/03/11 21:56:58;;;;;;;7.90;3.93;;;;;;;0.25;35.64;96500.44;10418209;28;20252;-58
2022/03/11 22:01:59;;;;;;;5.50;3.27;;;;;;;0.33;34.88;96481.94;10416922;28;20258;-58
2022/03/11 22:07:00;;;;;;;5.17;3.17;;;;;;;0.19;35.41;96480.22;10416455;28;20197;-56
2022/03/11 22:12:01;;;;;;;6.37;2.93;;;;;;;0.21;35.53;96485.28;10416290;28;20562;-54
2022/03/11 22:17:02;;;;;;;5.80;2.97;;;;;;;0.10;35.83;96483.41;10416130;28;20224;-56
2022/03/11 22:22:02;;;;;;;7.80;4.07;;;;;;;-0.01;36.63;96510.66;10416233;28;20213;-60
2022/03/11 22:27:03;;;;;;;8.90;4.10;;;;;;;-0.02;36.48;96501.25;10416177;28;20200;-56
2022/03/11 22:32:04;;;;;;;2.67;2.43;;;;;;;0.05;36.06;96472.56;10416019;28;20749;-56
2022/03/11 22:37:04;;;;;;;9.17;5.00;;;;;;;-0.04;36.10;96468.81;10415564;28;20267;-56
2022/03/11 22:42:05;;;;;;;7.13;3.00;;;;;;;0.01;35.55;96453.91;10415574;28;20201;-53
2022/03/11 22:47:09;;;;;;;6.60;3.33;;;;;;;-0.06;35.65;96445.75;10415047;28;20189;-55
2022/03/11 22:52:09;;;;;;;7.10;4.17;;;;;;;-0.05;35.67;96438.84;10414378;28;20213;-53
2022/03/11 22:57:11;;;;;;;4.80;3.27;;;;;;;-0.04;35.36;96449.03;10425986;28;20706;-55
2022/03/11 23:12:49;;;;;;;7.20;4.10;;;;;;;-0.12;35.82;96438.41;10413726;28;20698;-50
2022/03/11 23:17:50;;;;;;;8.17;3.47;;;;;;;-0.20;36.05;96441.47;10413831;28;20221;-58
2022/03/11 23:22:50;;;;;;;6.60;3.33;;;;;;;-0.26;36.89;96462.44;10413464;28;20208;-61
2022/03/11 23:27:50;;;;;;;6.77;3.90;;;;;;;-0.17;37.05;96452.50;10413340;28;20247;-56
2022/03/11 23:32:51;;;;;;;5.87;3.43;;;;;;;-0.24;38.00;96459.78;10412824;28;20248;-58
2022/03/11 23:37:51;;;;;;;7.87;4.17;;;;;;;-0.31;38.06;96513.38;10412781;28;20546;-57